Vandalia, Ohio
Current Conditions -  °F | °C
As of 6:56 PM on Saturday 22 Nov 2014 (Local Time) from KDAY Reporting Station
Overcast Overcast  
Wind Chill: 55°   Ceiling: 8000
Heat Index: 55°   Visibility: 10mi
Dew Point: 37°   Wind: 13mph
Humidity: 51%   Direction: 190°S
Pressure: 30.06"   Gusts: NA
Location:  39.89°N, 84.19°W
Report Text: KDAY 222356Z 19011KT 10SM SCT060 OVC080 13/03 A3006 RMK AO2 CIG 060 RWY 6L SLP185 60000 T01280028 10128 20083 56007
Loading
Personal Weather Stations






























Interactive Weather Map New forecast layout! Learn more

10-Day Weather Forecast

Advertisements
Track Severe Weather on mobile